createdAt,value
2022-12-28T00:01:06.436Z,5.57
2022-12-28T00:03:08.302Z,5.18
2022-12-28T00:05:10.059Z,5.20
2022-12-28T00:07:11.865Z,5.50
2022-12-28T00:09:13.622Z,6.15
2022-12-28T00:11:27.871Z,5.60
2022-12-28T00:13:33.060Z,5.38
2022-12-28T00:15:37.241Z,5.85
2022-12-28T00:17:38.911Z,5.55
2022-12-28T00:19:40.534Z,5.93
2022-12-28T00:21:43.198Z,5.68
2022-12-28T00:23:44.914Z,6.10
2022-12-28T00:25:46.548Z,6.43
2022-12-28T00:27:48.226Z,5.50
2022-12-28T00:29:49.868Z,6.40
2022-12-28T00:31:51.667Z,6.13
2022-12-28T00:33:53.670Z,6.53
2022-12-28T00:35:56.829Z,6.57
2022-12-28T00:37:58.514Z,6.15
2022-12-28T00:40:00.176Z,7.07
2022-12-28T00:42:01.923Z,6.20
2022-12-28T00:44:03.717Z,6.80
2022-12-28T00:46:05.576Z,6.53
2022-12-28T00:48:07.395Z,6.43
2022-12-28T00:50:09.727Z,7.00
2022-12-28T00:52:11.356Z,6.40
2022-12-28T00:54:13.130Z,6.93
2022-12-28T00:56:19.382Z,6.20
2022-12-28T00:58:21.357Z,7.38
2022-12-28T01:00:23.076Z,7.32
2022-12-28T01:02:24.718Z,7.93
2022-12-28T01:04:26.389Z,7.38
2022-12-28T01:06:29.040Z,7.47
2022-12-28T01:08:30.737Z,7.47
2022-12-28T01:10:32.408Z,8.45
2022-12-28T01:12:38.081Z,7.95
2022-12-28T01:14:40.138Z,9.05
2022-12-28T01:16:41.901Z,8.45
2022-12-28T01:18:44.897Z,8.38
2022-12-28T01:20:46.655Z,8.90
2022-12-28T01:22:48.332Z,9.07
2022-12-28T01:24:49.943Z,9.20
2022-12-28T01:26:51.652Z,8.75
2022-12-28T01:28:53.449Z,8.40
2022-12-28T01:30:55.131Z,9.15
2022-12-28T01:32:59.763Z,9.02
2022-12-28T01:35:01.450Z,9.88
2022-12-28T01:37:03.219Z,10.35
2022-12-28T01:39:06.466Z,10.20
2022-12-28T01:41:10.061Z,10.80
2022-12-28T01:43:15.690Z,10.38
2022-12-28T01:45:31.790Z,10.85
2022-12-28T01:47:35.113Z,10.77
2022-12-28T01:49:40.960Z,11.35
2022-12-28T01:52:02.823Z,10.73
2022-12-28T01:54:04.863Z,10.45
2022-12-28T01:56:06.815Z,11.40
2022-12-28T01:58:15.220Z,11.00
2022-12-28T02:00:17.495Z,10.50
2022-12-28T02:02:20.326Z,10.07
2022-12-28T02:04:21.985Z,10.40
2022-12-28T02:06:23.708Z,10.35
2022-12-28T02:08:56.751Z,11.27
2022-12-28T02:10:58.630Z,11.45
2022-12-28T02:13:00.651Z,11.15
2022-12-28T02:15:02.754Z,12.05
2022-12-28T02:17:04.532Z,11.25
2022-12-28T02:19:06.813Z,12.55
2022-12-28T02:21:19.331Z,11.32
2022-12-28T02:23:34.878Z,11.70
2022-12-28T02:26:13.900Z,11.77
2022-12-28T02:28:38.521Z,11.65
2022-12-28T02:31:07.660Z,11.75
2022-12-28T02:33:18.000Z,11.75
2022-12-28T02:35:19.627Z,11.95
2022-12-28T02:37:44.829Z,11.43
2022-12-28T02:39:52.456Z,10.88
2022-12-28T02:41:55.277Z,10.93
2022-12-28T02:43:58.927Z,11.95
2022-12-28T02:46:34.427Z,11.50
2022-12-28T02:49:02.976Z,11.00
2022-12-28T02:51:29.355Z,10.90
2022-12-28T02:53:59.519Z,11.27
2022-12-28T02:56:09.964Z,9.65
2022-12-28T02:58:33.523Z,9.45
2022-12-28T03:01:03.750Z,9.73
2022-12-28T03:03:22.101Z,9.52
2022-12-28T03:06:14.654Z,9.32
2022-12-28T03:08:31.878Z,9.48
2022-12-28T03:10:35.419Z,9.68
2022-12-28T03:12:49.785Z,10.00
2022-12-28T03:17:19.846Z,9.23
2022-12-28T03:19:42.347Z,9.63
2022-12-28T03:22:02.672Z,8.63
2022-12-28T03:24:24.401Z,9.05
2022-12-28T03:26:45.334Z,9.48
2022-12-28T03:29:06.305Z,9.55
2022-12-28T03:31:15.048Z,8.40
2022-12-28T03:33:16.757Z,9.38
2022-12-28T03:35:20.568Z,8.70
2022-12-28T03:37:29.885Z,9.27
2022-12-28T03:39:51.379Z,7.93
2022-12-28T03:42:20.167Z,8.63
2022-12-28T03:44:25.420Z,9.40
2022-12-28T03:46:49.831Z,8.88
2022-12-28T03:48:52.100Z,8.70
2022-12-28T03:50:54.111Z,8.70
2022-12-28T03:52:58.709Z,8.77
2022-12-28T03:55:00.389Z,8.88
2022-12-28T03:57:02.528Z,8.07
2022-12-28T03:59:04.259Z,8.48
2022-12-28T04:01:06.810Z,8.32
2022-12-28T04:03:08.751Z,7.82
2022-12-28T04:05:10.645Z,7.25
2022-12-28T04:07:12.376Z,8.38
2022-12-28T04:09:14.107Z,7.72
2022-12-28T04:11:15.849Z,6.90
2022-12-28T04:13:17.740Z,7.22
2022-12-28T04:15:19.441Z,7.30
2022-12-28T04:17:21.136Z,7.35
2022-12-28T04:19:22.727Z,6.97
2022-12-28T04:21:24.511Z,6.90
2022-12-28T04:23:26.571Z,6.68
2022-12-28T04:25:28.182Z,6.80
2022-12-28T04:27:29.813Z,6.10
2022-12-28T04:29:31.524Z,6.60
2022-12-28T04:31:33.386Z,6.82
2022-12-28T04:33:36.690Z,6.78
2022-12-28T04:35:38.428Z,6.70
2022-12-28T04:37:40.059Z,6.18
2022-12-28T04:39:55.272Z,5.75
2022-12-28T04:41:58.720Z,5.95
2022-12-28T04:44:00.771Z,5.88
2022-12-28T04:46:04.868Z,6.30
2022-12-28T04:48:06.507Z,5.45
2022-12-28T04:50:08.513Z,5.63
2022-12-28T04:52:10.284Z,5.55
2022-12-28T04:54:13.763Z,5.60
2022-12-28T04:56:17.152Z,5.93
2022-12-28T04:58:18.909Z,5.75
2022-12-28T05:00:20.825Z,5.32
2022-12-28T05:02:22.719Z,5.65
2022-12-28T05:04:24.529Z,5.35
2022-12-28T05:06:27.467Z,6.32
2022-12-28T05:08:32.069Z,5.93
2022-12-28T05:10:33.829Z,6.32
2022-12-28T05:12:35.579Z,5.93
2022-12-28T05:14:37.481Z,6.55
2022-12-28T05:16:39.266Z,7.22
2022-12-28T05:18:41.325Z,5.90
2022-12-28T05:20:42.975Z,5.93
2022-12-28T05:22:44.827Z,6.20
2022-12-28T05:24:46.499Z,6.97
2022-12-28T05:26:48.395Z,6.72
2022-12-28T05:28:50.242Z,6.57
2022-12-28T05:30:52.254Z,5.80
2022-12-28T05:32:54.077Z,5.88
2022-12-28T05:34:55.730Z,5.68
2022-12-28T05:36:57.457Z,5.90
2022-12-28T05:38:59.186Z,5.57
2022-12-28T05:41:13.352Z,6.80
2022-12-28T05:43:14.997Z,6.55
2022-12-28T05:45:16.800Z,5.28
2022-12-28T05:47:18.508Z,6.55
2022-12-28T05:49:20.118Z,6.70
2022-12-28T05:51:23.215Z,6.53
2022-12-28T05:53:24.993Z,7.90
2022-12-28T05:55:26.717Z,7.53
2022-12-28T05:57:28.384Z,6.30
2022-12-28T05:59:30.102Z,6.03
2022-12-28T06:01:37.842Z,5.25
2022-12-28T06:03:39.840Z,5.82
2022-12-28T06:05:41.559Z,5.20
2022-12-28T06:07:43.208Z,4.88
2022-12-28T06:09:45.003Z,5.00
2022-12-28T06:11:46.797Z,5.05
2022-12-28T06:13:48.954Z,5.38
2022-12-28T06:15:50.642Z,5.57
2022-12-28T06:17:53.676Z,5.90
2022-12-28T06:19:55.389Z,5.53
2022-12-28T06:21:57.087Z,5.18
2022-12-28T06:24:00.122Z,6.03
2022-12-28T06:26:03.759Z,5.95
2022-12-28T06:28:05.409Z,5.90
2022-12-28T06:30:08.011Z,5.82
2022-12-28T06:32:09.675Z,6.10
2022-12-28T06:34:11.286Z,6.07
2022-12-28T06:36:19.691Z,5.63
2022-12-28T06:38:22.790Z,6.00
2022-12-28T06:40:39.593Z,6.13
2022-12-28T06:42:46.180Z,6.32
2022-12-28T06:44:47.849Z,6.32
2022-12-28T06:46:49.493Z,6.55
2022-12-28T06:48:51.666Z,6.53
2022-12-28T06:50:57.056Z,6.55
2022-12-28T06:52:58.710Z,6.15
2022-12-28T06:55:00.419Z,6.13
2022-12-28T06:57:02.298Z,6.35
2022-12-28T06:59:04.673Z,5.85
2022-12-28T07:01:18.006Z,6.43
2022-12-28T07:03:19.773Z,7.18
2022-12-28T07:05:21.432Z,6.38
2022-12-28T07:07:23.118Z,5.70
2022-12-28T07:09:24.821Z,6.05
2022-12-28T07:11:26.584Z,6.20
2022-12-28T07:13:28.573Z,6.80
2022-12-28T07:15:30.424Z,6.65
2022-12-28T07:17:32.190Z,5.68
2022-12-28T07:19:33.919Z,6.68
2022-12-28T07:21:37.767Z,7.00
2022-12-28T07:25:40.915Z,6.90
2022-12-28T07:27:42.657Z,6.80
2022-12-28T07:29:44.658Z,6.95
2022-12-28T07:31:46.310Z,7.70
2022-12-28T07:33:48.938Z,6.55
2022-12-28T07:35:50.688Z,9.18
2022-12-28T07:37:54.444Z,8.50
2022-12-28T07:39:56.070Z,7.75
2022-12-28T07:41:57.768Z,6.80
2022-12-28T07:44:00.274Z,7.78
2022-12-28T07:46:05.600Z,8.85
2022-12-28T07:48:07.354Z,10.45
2022-12-28T07:50:09.523Z,10.55
2022-12-28T07:52:11.357Z,24.23
2022-12-28T07:54:13.011Z,19.83
2022-12-28T07:56:15.516Z,17.60
2022-12-28T07:58:17.149Z,16.10
2022-12-28T08:00:19.170Z,16.33
2022-12-28T08:02:21.027Z,14.93
2022-12-28T08:04:23.064Z,14.75
2022-12-28T08:06:25.517Z,15.57
2022-12-28T08:08:27.199Z,16.77
2022-12-28T08:10:28.910Z,15.63
2022-12-28T08:12:30.685Z,13.98
2022-12-28T08:14:33.222Z,12.88
2022-12-28T08:16:37.422Z,15.20
2022-12-28T08:18:40.349Z,13.85
2022-12-28T08:20:42.055Z,26.27
2022-12-28T08:22:43.941Z,14.10
2022-12-28T08:24:45.645Z,12.25
2022-12-28T08:26:48.663Z,12.30
2022-12-28T08:28:53.231Z,10.40
2022-12-28T08:30:55.256Z,8.07
2022-12-28T08:32:57.004Z,9.20
2022-12-28T08:34:58.731Z,8.85
2022-12-28T08:37:00.382Z,7.80
2022-12-28T08:39:03.107Z,7.85
2022-12-28T08:41:06.914Z,7.60
2022-12-28T08:43:08.610Z,7.72
2022-12-28T08:45:10.568Z,7.93
2022-12-28T08:47:12.308Z,7.72
2022-12-28T08:49:14.135Z,8.43
2022-12-28T08:51:37.450Z,7.00
2022-12-28T08:53:39.818Z,6.22
2022-12-28T08:55:41.442Z,6.90
2022-12-28T08:57:43.144Z,6.60
2022-12-28T08:59:45.132Z,5.57
2022-12-28T09:01:47.566Z,7.07
2022-12-28T09:03:51.223Z,6.90
2022-12-28T09:05:54.755Z,8.48
2022-12-28T09:07:59.715Z,7.00
2022-12-28T09:10:01.632Z,7.05
2022-12-28T09:12:03.563Z,7.60
2022-12-28T09:14:07.583Z,6.53
2022-12-28T09:16:12.177Z,7.53
2022-12-28T09:18:13.897Z,9.07
2022-12-28T09:20:15.600Z,10.80
2022-12-28T09:22:17.310Z,10.63
2022-12-28T09:24:19.140Z,9.85
2022-12-28T09:26:25.929Z,8.45
2022-12-28T09:28:27.763Z,9.57
2022-12-28T12:04:00.040Z,8.52
2022-12-28T12:06:01.752Z,8.65
2022-12-28T12:08:12.657Z,8.73
2022-12-28T12:10:29.524Z,9.43
2022-12-28T12:12:31.094Z,9.07
2022-12-28T12:14:37.846Z,9.05
2022-12-28T12:17:07.000Z,9.20
2022-12-28T12:19:09.207Z,9.30
2022-12-28T12:21:41.234Z,9.15
2022-12-28T12:23:49.426Z,9.02
2022-12-28T12:25:54.360Z,9.93
2022-12-28T12:28:15.676Z,9.95
2022-12-28T12:30:19.594Z,9.88
2022-12-28T12:34:41.833Z,9.25
2022-12-28T12:37:20.907Z,9.95
2022-12-28T12:39:47.333Z,9.45
2022-12-28T12:42:07.575Z,10.35
2022-12-28T12:44:34.658Z,10.40
2022-12-28T12:46:42.335Z,9.95
2022-12-28T12:49:21.187Z,9.50
2022-12-28T12:51:28.392Z,11.43
2022-12-28T12:53:32.790Z,11.48
2022-12-28T12:56:04.847Z,10.75
2022-12-28T12:58:19.919Z,11.38
2022-12-28T13:00:22.909Z,11.10
2022-12-28T13:02:33.775Z,10.67
2022-12-28T13:04:35.990Z,11.95
2022-12-28T13:06:39.705Z,12.02
2022-12-28T13:08:48.550Z,12.65
2022-12-28T13:10:50.480Z,12.75
2022-12-28T13:12:54.467Z,12.52
2022-12-28T13:15:09.121Z,13.25
2022-12-28T13:17:19.050Z,12.73
2022-12-28T13:19:28.875Z,13.55
2022-12-28T13:21:40.762Z,13.20
2022-12-28T13:23:44.224Z,13.50
2022-12-28T13:25:47.892Z,12.90
2022-12-28T13:27:49.611Z,13.23
2022-12-28T13:29:52.947Z,13.10
2022-12-28T13:31:54.801Z,14.20
2022-12-28T13:33:57.635Z,12.45
2022-12-28T13:36:14.091Z,12.60
2022-12-28T13:38:16.773Z,12.65
2022-12-28T13:40:18.563Z,12.98
2022-12-28T13:42:28.429Z,13.48
2022-12-28T13:44:38.610Z,13.65
2022-12-28T13:46:42.594Z,12.70
2022-12-28T13:48:47.214Z,13.85
2022-12-28T13:50:50.030Z,13.98
2022-12-28T13:53:03.918Z,13.25
2022-12-28T13:55:18.227Z,13.18
2022-12-28T13:59:41.785Z,13.27
2022-12-28T14:01:46.393Z,14.68
2022-12-28T14:03:50.286Z,14.23
2022-12-28T14:06:00.240Z,14.18
2022-12-28T14:08:02.722Z,13.65
2022-12-28T14:10:04.758Z,14.00
2022-12-28T14:12:06.594Z,14.00
2022-12-28T14:14:09.712Z,14.00
2022-12-28T14:16:11.650Z,14.73
2022-12-28T14:18:17.230Z,14.45
2022-12-28T14:20:19.254Z,14.30
2022-12-28T14:22:35.439Z,14.27
2022-12-28T14:25:02.636Z,14.43
2022-12-28T14:27:04.341Z,13.32
2022-12-28T14:29:12.980Z,14.05
2022-12-28T14:31:22.753Z,14.75
2022-12-28T14:33:30.382Z,15.57
2022-12-28T14:35:32.795Z,16.33
2022-12-28T14:37:38.970Z,16.88
2022-12-28T14:39:44.642Z,16.60
2022-12-28T14:41:46.834Z,19.02
2022-12-28T14:43:56.371Z,16.00
2022-12-28T14:46:06.590Z,15.55
2022-12-28T14:48:32.054Z,15.38
2022-12-28T14:50:34.424Z,17.48
2022-12-28T14:52:41.607Z,16.02
2022-12-28T14:54:44.753Z,20.50
2022-12-28T14:56:50.110Z,15.40
2022-12-28T14:58:57.263Z,15.77
2022-12-28T15:01:14.581Z,15.15
2022-12-28T15:03:20.062Z,16.15
2022-12-28T15:05:34.884Z,14.93
2022-12-28T15:07:36.848Z,14.35
2022-12-28T15:09:38.637Z,14.63
2022-12-28T15:11:40.295Z,14.85
2022-12-28T15:13:43.212Z,16.35
2022-12-28T15:15:46.017Z,16.23
2022-12-28T15:17:47.883Z,15.50
2022-12-28T15:19:49.668Z,16.48
2022-12-28T15:21:51.461Z,16.17
2022-12-28T15:23:54.302Z,17.92
2022-12-28T15:25:57.275Z,17.75
2022-12-28T15:27:58.938Z,16.73
2022-12-28T15:30:09.855Z,16.27
2022-12-28T15:32:13.689Z,15.05
2022-12-28T15:34:15.401Z,16.02
2022-12-28T15:36:19.493Z,15.30
2022-12-28T15:38:21.420Z,20.63
2022-12-28T15:40:23.078Z,16.05
2022-12-28T15:42:24.777Z,15.50
2022-12-28T15:44:26.499Z,17.40
2022-12-28T15:46:28.401Z,16.55
2022-12-28T15:48:31.441Z,16.50
2022-12-28T15:50:33.303Z,15.30
2022-12-28T15:52:35.063Z,16.15
2022-12-28T15:54:36.757Z,15.20
2022-12-28T15:56:39.849Z,15.57
2022-12-28T15:58:41.444Z,15.73
2022-12-28T16:00:47.506Z,16.10
2022-12-28T16:02:49.706Z,16.67
2022-12-28T16:04:51.476Z,17.92
2022-12-28T16:06:53.067Z,17.67
2022-12-28T16:08:59.177Z,16.17
2022-12-28T16:11:30.541Z,16.98
2022-12-28T16:13:32.241Z,18.33
2022-12-28T16:15:34.049Z,18.20
2022-12-28T16:17:41.741Z,16.17
2022-12-28T16:19:48.700Z,16.38
2022-12-28T16:21:51.371Z,17.92
2022-12-28T16:23:53.121Z,17.30
2022-12-28T16:25:54.798Z,22.92
2022-12-28T16:27:56.369Z,23.98
2022-12-28T16:29:58.972Z,18.23
2022-12-28T16:32:01.546Z,19.85
2022-12-28T16:34:15.364Z,25.80
2022-12-28T16:36:17.106Z,26.23
2022-12-28T16:38:20.931Z,34.00
2022-12-28T16:42:24.121Z,33.20
2022-12-28T16:44:29.571Z,37.60
2022-12-28T16:46:31.422Z,32.47
2022-12-28T16:48:33.247Z,39.88
2022-12-28T16:50:35.317Z,39.70
2022-12-28T16:52:37.083Z,40.67
2022-12-28T16:54:39.073Z,40.00
2022-12-28T16:56:40.720Z,38.53
2022-12-28T16:58:47.423Z,35.63
2022-12-28T17:00:50.798Z,37.47
2022-12-28T17:02:52.788Z,46.53
2022-12-28T17:04:54.547Z,46.58
2022-12-28T17:06:56.323Z,52.30
2022-12-28T17:09:01.093Z,71.07
2022-12-28T17:11:07.193Z,69.93
2022-12-28T17:13:09.195Z,65.40
2022-12-28T17:15:11.255Z,55.03
2022-12-28T17:17:13.072Z,48.92
2022-12-28T17:19:14.818Z,44.65
2022-12-28T17:21:16.431Z,46.45
2022-12-28T17:23:18.103Z,41.45
2022-12-28T17:25:19.934Z,33.63
2022-12-28T17:27:21.617Z,32.30
2022-12-28T17:29:24.003Z,29.77
2022-12-28T17:31:25.980Z,32.35
2022-12-28T17:33:27.626Z,29.35
2022-12-28T17:35:29.510Z,31.95
2022-12-28T17:37:31.103Z,31.08
2022-12-28T17:39:39.566Z,28.00
2022-12-28T17:41:42.164Z,26.85
2022-12-28T17:43:48.094Z,26.95
2022-12-28T17:45:49.811Z,27.58
2022-12-28T17:47:51.849Z,28.77
2022-12-28T17:49:53.437Z,27.83
2022-12-28T17:51:55.181Z,28.27
2022-12-28T17:53:57.422Z,29.77
2022-12-28T17:56:07.077Z,28.98
2022-12-28T17:58:08.812Z,27.77
2022-12-28T18:00:11.246Z,30.13
2022-12-28T18:02:13.198Z,30.52
2022-12-28T18:04:15.560Z,29.50
2022-12-28T18:06:17.258Z,32.30
2022-12-28T18:08:20.404Z,29.77
2022-12-28T18:10:22.607Z,30.65
2022-12-28T18:12:24.327Z,27.95
2022-12-28T18:14:26.821Z,29.63
2022-12-28T18:16:28.563Z,29.35
2022-12-28T18:18:30.659Z,28.27
2022-12-28T18:20:32.506Z,26.90
2022-12-28T18:22:34.258Z,25.58
2022-12-28T18:24:35.980Z,24.95
2022-12-28T18:26:37.631Z,28.15
2022-12-28T18:28:39.597Z,26.05
2022-12-28T18:30:41.332Z,27.30
2022-12-28T18:32:42.981Z,29.40
2022-12-28T18:34:44.776Z,30.33
2022-12-28T18:36:46.487Z,30.67
2022-12-28T18:38:48.788Z,32.17
2022-12-28T18:40:53.960Z,32.03
2022-12-28T18:42:55.652Z,30.98
2022-12-28T18:44:58.139Z,32.13
2022-12-28T18:47:00.282Z,28.83
2022-12-28T18:49:02.103Z,27.63
2022-12-28T18:51:09.483Z,30.25
2022-12-28T18:53:11.182Z,28.05
2022-12-28T18:55:12.832Z,29.67
2022-12-28T18:57:14.430Z,27.15
2022-12-28T18:59:16.119Z,35.50
2022-12-28T19:03:46.071Z,41.95
2022-12-28T19:05:47.836Z,40.25
2022-12-28T19:07:49.791Z,40.45
2022-12-28T19:10:13.071Z,38.03
2022-12-28T19:12:15.203Z,38.80
2022-12-28T19:14:16.909Z,40.58
2022-12-28T19:16:23.216Z,41.58
2022-12-28T19:18:30.434Z,38.65
2022-12-28T19:20:32.616Z,39.65
2022-12-28T19:22:34.259Z,39.97
2022-12-28T19:24:35.955Z,41.15
2022-12-28T19:26:37.710Z,40.78
2022-12-28T19:28:39.338Z,45.95
2022-12-28T19:30:41.010Z,47.13
2022-12-28T19:32:42.759Z,51.67
2022-12-28T19:34:44.450Z,56.55
2022-12-28T19:36:46.124Z,53.75
2022-12-28T19:38:48.283Z,42.92
2022-12-28T19:40:49.902Z,30.75
2022-12-28T19:42:51.519Z,26.70
2022-12-28T19:44:53.220Z,26.13
2022-12-28T19:46:55.403Z,27.13
2022-12-28T19:48:58.268Z,28.33
2022-12-28T19:51:00.187Z,23.77
2022-12-28T19:53:02.699Z,25.23
2022-12-28T19:55:04.949Z,27.02
2022-12-28T19:57:06.649Z,24.55
2022-12-28T19:59:08.377Z,25.48
2022-12-28T20:01:13.962Z,25.67
2022-12-28T20:03:16.022Z,22.52
2022-12-28T20:05:17.849Z,22.05
2022-12-28T20:07:19.518Z,21.75
2022-12-28T20:09:21.166Z,20.23
2022-12-28T20:11:23.865Z,19.98
2022-12-28T20:13:25.661Z,20.58
2022-12-28T20:15:27.553Z,20.88
2022-12-28T20:17:29.825Z,20.35
2022-12-28T20:19:31.528Z,20.40
2022-12-28T20:21:33.837Z,18.80
2022-12-28T20:23:36.425Z,18.08
2022-12-28T20:25:38.064Z,18.50
2022-12-28T20:27:39.835Z,16.88
2022-12-28T20:29:41.487Z,17.65
2022-12-28T20:31:43.298Z,16.55
2022-12-28T20:33:45.748Z,15.82
2022-12-28T20:36:01.781Z,15.07
2022-12-28T20:38:03.448Z,14.20
2022-12-28T20:40:05.974Z,14.10
2022-12-28T20:42:26.543Z,15.40
2022-12-28T20:44:31.423Z,13.93
2022-12-28T20:46:33.349Z,13.82
2022-12-28T20:48:35.086Z,13.70
2022-12-28T20:50:36.791Z,15.48
2022-12-28T20:52:38.467Z,16.42
2022-12-28T20:54:40.081Z,15.80
2022-12-28T20:56:42.446Z,14.50
2022-12-28T20:58:44.124Z,14.55
2022-12-28T21:00:46.143Z,14.35
2022-12-28T21:02:48.302Z,13.38
2022-12-28T21:04:49.927Z,13.30
2022-12-28T21:06:52.726Z,13.18
2022-12-28T21:08:54.385Z,12.93
2022-12-28T21:10:56.021Z,12.43
2022-12-28T21:12:57.863Z,13.02
2022-12-28T21:14:59.639Z,12.40
2022-12-28T21:17:01.305Z,14.48
2022-12-28T21:19:03.231Z,13.60
2022-12-28T21:21:05.380Z,14.23
2022-12-28T21:23:07.165Z,15.07
2022-12-28T21:25:09.296Z,15.50
2022-12-28T21:27:11.085Z,14.95
2022-12-28T21:29:12.981Z,14.82
2022-12-28T21:31:14.931Z,15.77
2022-12-28T21:33:16.630Z,15.10
2022-12-28T21:35:18.320Z,15.18
2022-12-28T21:37:37.668Z,14.50
2022-12-28T21:39:39.523Z,15.00
2022-12-28T21:41:50.170Z,15.73
2022-12-28T21:43:51.762Z,15.85
2022-12-28T21:46:13.237Z,14.52
2022-12-28T21:48:14.887Z,15.80
2022-12-28T21:50:16.626Z,22.42
2022-12-28T21:52:18.309Z,20.17
2022-12-28T21:54:21.488Z,24.90
2022-12-28T21:56:23.272Z,26.23
2022-12-28T21:58:24.984Z,25.20
2022-12-28T22:00:45.291Z,27.13
2022-12-28T22:03:05.716Z,29.92
2022-12-28T22:05:27.788Z,28.33
2022-12-28T22:07:30.003Z,26.98
2022-12-28T22:09:51.775Z,28.17
2022-12-28T22:12:12.406Z,30.08
2022-12-28T22:14:14.096Z,34.17
2022-12-28T22:16:15.799Z,31.95
2022-12-28T22:18:53.157Z,34.15
2022-12-28T22:20:44.600Z,33.55
2022-12-28T22:22:46.281Z,33.45
2022-12-28T22:24:48.072Z,31.85
2022-12-28T22:26:49.839Z,30.85
2022-12-28T22:28:51.627Z,32.40
2022-12-28T22:30:53.351Z,31.30
2022-12-28T22:32:55.329Z,30.65
2022-12-28T22:34:57.016Z,32.67
2022-12-28T22:36:58.703Z,30.75
2022-12-28T22:39:00.387Z,29.63
2022-12-28T22:41:02.042Z,30.95
2022-12-28T22:43:03.857Z,29.95
2022-12-28T22:45:05.992Z,30.35
2022-12-28T22:47:07.813Z,30.05
2022-12-28T22:49:09.912Z,30.48
2022-12-28T22:51:14.769Z,31.00
2022-12-28T22:53:16.562Z,30.30
2022-12-28T22:55:18.446Z,31.83
2022-12-28T22:57:20.379Z,31.42
2022-12-28T22:59:22.047Z,31.55
2022-12-28T23:01:24.129Z,32.47
2022-12-28T23:03:25.852Z,31.90
2022-12-28T23:05:27.610Z,31.63
2022-12-28T23:07:29.301Z,30.08
2022-12-28T23:09:31.137Z,32.17
2022-12-28T23:11:41.898Z,31.83
2022-12-28T23:13:43.574Z,31.35
2022-12-28T23:15:45.286Z,30.90
2022-12-28T23:17:48.524Z,31.70
2022-12-28T23:20:08.901Z,29.92
2022-12-28T23:22:32.385Z,29.80
2022-12-28T23:24:52.509Z,29.58
2022-12-28T23:27:12.544Z,28.38
2022-12-28T23:29:14.244Z,29.55
2022-12-28T23:31:15.983Z,28.17
2022-12-28T23:33:18.259Z,28.60
2022-12-28T23:35:21.308Z,28.17
2022-12-28T23:37:23.033Z,28.15
2022-12-28T23:39:25.123Z,26.48
2022-12-28T23:41:45.586Z,27.70
2022-12-28T23:43:47.271Z,26.45
2022-12-28T23:45:48.985Z,27.40
2022-12-28T23:47:52.662Z,26.60
2022-12-28T23:49:54.862Z,25.98
2022-12-28T23:51:56.747Z,25.85
2022-12-28T23:53:58.480Z,26.80
2022-12-28T23:56:00.047Z,26.60
2022-12-28T23:58:01.771Z,26.73
